sensor_id;sensor_type;location;lat;lon;timestamp;temperature;humidity
11505;DHT22;5809;53.262;10.408;2023-06-26T00:00:07;20.90;99.90
11505;DHT22;5809;53.262;10.408;2023-06-26T00:05:01;20.80;99.90
11505;DHT22;5809;53.262;10.408;2023-06-26T00:07:30;20.80;99.90
11505;DHT22;5809;53.262;10.408;2023-06-26T00:09:59;20.60;99.90
11505;DHT22;5809;53.262;10.408;2023-06-26T00:12:26;20.60;99.90
11505;DHT22;5809;53.262;10.408;2023-06-26T00:14:53;20.60;99.90
11505;DHT22;5809;53.262;10.408;2023-06-26T00:17:20;20.60;99.90
11505;DHT22;5809;53.262;10.408;2023-06-26T00:19:47;20.60;99.90
11505;DHT22;5809;53.262;10.408;2023-06-26T00:22:14;20.50;99.90
11505;DHT22;5809;53.262;10.408;2023-06-26T00:24:42;20.50;99.90
11505;DHT22;5809;53.262;10.408;2023-06-26T00:27:10;20.40;99.90
11505;DHT22;5809;53.262;10.408;2023-06-26T00:29:37;20.40;99.90
11505;DHT22;5809;53.262;10.408;2023-06-26T00:32:05;20.40;99.90
11505;DHT22;5809;53.262;10.408;2023-06-26T00:34:32;20.40;99.90
11505;DHT22;5809;53.262;10.408;2023-06-26T00:36:59;20.40;99.90
11505;DHT22;5809;53.262;10.408;2023-06-26T00:39:26;20.30;99.90
11505;DHT22;5809;53.262;10.408;2023-06-26T00:41:54;20.20;99.90
11505;DHT22;5809;53.262;10.408;2023-06-26T00:44:21;20.20;99.90
11505;DHT22;5809;53.262;10.408;2023-06-26T00:46:48;20.20;99.90
11505;DHT22;5809;53.262;10.408;2023-06-26T00:49:15;20.20;99.90
11505;DHT22;5809;53.262;10.408;2023-06-26T00:51:43;20.10;99.90
11505;DHT22;5809;53.262;10.408;2023-06-26T00:54:10;20.10;99.90
11505;DHT22;5809;53.262;10.408;2023-06-26T00:56:37;20.10;99.90
11505;DHT22;5809;53.262;10.408;2023-06-26T00:59:05;20.10;99.90
11505;DHT22;5809;53.262;10.408;2023-06-26T01:01:32;20.00;99.90
11505;DHT22;5809;53.262;10.408;2023-06-26T01:03:59;20.00;99.90
11505;DHT22;5809;53.262;10.408;2023-06-26T01:06:28;20.10;99.90
11505;DHT22;5809;53.262;10.408;2023-06-26T01:08:57;20.00;99.90
11505;DHT22;5809;53.262;10.408;2023-06-26T01:11:24;20.00;99.90
11505;DHT22;5809;53.262;10.408;2023-06-26T01:13:52;20.00;99.90
11505;DHT22;5809;53.262;10.408;2023-06-26T01:16:23;20.00;99.90
11505;DHT22;5809;53.262;10.408;2023-06-26T01:18:51;20.00;99.90
11505;DHT22;5809;53.262;10.408;2023-06-26T01:21:18;19.90;99.90
11505;DHT22;5809;53.262;10.408;2023-06-26T01:23:56;19.90;99.90
11505;DHT22;5809;53.262;10.408;2023-06-26T01:26:29;19.90;99.90
11505;DHT22;5809;53.262;10.408;2023-06-26T01:28:57;19.90;99.90
11505;DHT22;5809;53.262;10.408;2023-06-26T01:31:26;19.90;99.90
11505;DHT22;5809;53.262;10.408;2023-06-26T01:33:54;19.90;99.90
11505;DHT22;5809;53.262;10.408;2023-06-26T01:36:22;19.90;99.90
11505;DHT22;5809;53.262;10.408;2023-06-26T01:38:49;19.90;99.90
11505;DHT22;5809;53.262;10.408;2023-06-26T01:41:17;19.90;99.90
11505;DHT22;5809;53.262;10.408;2023-06-26T01:43:57;19.80;99.90
11505;DHT22;5809;53.262;10.408;2023-06-26T01:46:35;19.80;99.90
11505;DHT22;5809;53.262;10.408;2023-06-26T01:49:06;19.80;99.90
11505;DHT22;5809;53.262;10.408;2023-06-26T01:51:41;19.70;99.90
11505;DHT22;5809;53.262;10.408;2023-06-26T01:54:10;19.70;99.90
11505;DHT22;5809;53.262;10.408;2023-06-26T01:56:40;19.70;99.90
11505;DHT22;5809;53.262;10.408;2023-06-26T01:59:11;19.70;99.90
11505;DHT22;5809;53.262;10.408;2023-06-26T02:01:39;19.60;99.90
11505;DHT22;5809;53.262;10.408;2023-06-26T02:04:06;19.60;99.90
11505;DHT22;5809;53.262;10.408;2023-06-26T02:06:33;19.60;99.90
11505;DHT22;5809;53.262;10.408;2023-06-26T02:09:00;19.50;99.90
11505;DHT22;5809;53.262;10.408;2023-06-26T02:13:54;19.50;99.90
11505;DHT22;5809;53.262;10.408;2023-06-26T02:16:23;19.50;99.90
11505;DHT22;5809;53.262;10.408;2023-06-26T02:18:49;19.50;99.90
11505;DHT22;5809;53.262;10.408;2023-06-26T02:21:16;19.40;99.90
11505;DHT22;5809;53.262;10.408;2023-06-26T02:23:43;19.50;99.90
11505;DHT22;5809;53.262;10.408;2023-06-26T02:26:10;19.50;99.90
11505;DHT22;5809;53.262;10.408;2023-06-26T02:28:37;19.50;99.90
11505;DHT22;5809;53.262;10.408;2023-06-26T02:31:04;19.50;99.90
11505;DHT22;5809;53.262;10.408;2023-06-26T02:33:32;19.50;99.90
11505;DHT22;5809;53.262;10.408;2023-06-26T02:35:59;19.50;99.90
11505;DHT22;5809;53.262;10.408;2023-06-26T02:38:26;19.50;99.90
11505;DHT22;5809;53.262;10.408;2023-06-26T02:40:53;19.50;99.90
11505;DHT22;5809;53.262;10.408;2023-06-26T02:43:20;19.50;99.90
11505;DHT22;5809;53.262;10.408;2023-06-26T02:45:47;19.50;99.90
11505;DHT22;5809;53.262;10.408;2023-06-26T02:48:13;19.50;99.90
11505;DHT22;5809;53.262;10.408;2023-06-26T02:50:42;19.50;99.90
11505;DHT22;5809;53.262;10.408;2023-06-26T02:53:11;19.50;99.90
11505;DHT22;5809;53.262;10.408;2023-06-26T02:55:38;19.40;99.90
11505;DHT22;5809;53.262;10.408;2023-06-26T02:58:05;19.40;99.90
11505;DHT22;5809;53.262;10.408;2023-06-26T03:00:32;19.40;99.90
11505;DHT22;5809;53.262;10.408;2023-06-26T03:02:58;19.40;99.90
11505;DHT22;5809;53.262;10.408;2023-06-26T03:05:45;19.30;99.90
11505;DHT22;5809;53.262;10.408;2023-06-26T03:08:12;19.30;99.90
11505;DHT22;5809;53.262;10.408;2023-06-26T03:10:38;19.30;99.90
11505;DHT22;5809;53.262;10.408;2023-06-26T03:13:05;19.30;99.90
11505;DHT22;5809;53.262;10.408;2023-06-26T03:15:32;19.30;99.90
11505;DHT22;5809;53.262;10.408;2023-06-26T03:17:59;19.30;99.90
11505;DHT22;5809;53.262;10.408;2023-06-26T03:20:26;19.30;99.90
11505;DHT22;5809;53.262;10.408;2023-06-26T03:22:54;19.20;99.90
11505;DHT22;5809;53.262;10.408;2023-06-26T03:25:21;19.20;99.90
11505;DHT22;5809;53.262;10.408;2023-06-26T03:27:48;19.20;99.90
11505;DHT22;5809;53.262;10.408;2023-06-26T03:30:15;19.20;99.90
11505;DHT22;5809;53.262;10.408;2023-06-26T03:32:42;19.20;99.90
11505;DHT22;5809;53.262;10.408;2023-06-26T03:35:09;19.20;99.90
11505;DHT22;5809;53.262;10.408;2023-06-26T03:37:36;19.20;99.90
11505;DHT22;5809;53.262;10.408;2023-06-26T03:40:04;19.20;99.90
11505;DHT22;5809;53.262;10.408;2023-06-26T03:42:31;19.20;99.90
11505;DHT22;5809;53.262;10.408;2023-06-26T03:44:58;19.20;99.90
11505;DHT22;5809;53.262;10.408;2023-06-26T03:49:52;19.30;99.90
11505;DHT22;5809;53.262;10.408;2023-06-26T03:52:19;19.40;99.90
11505;DHT22;5809;53.262;10.408;2023-06-26T03:57:15;19.40;99.90
11505;DHT22;5809;53.262;10.408;2023-06-26T04:02:09;19.50;99.90
11505;DHT22;5809;53.262;10.408;2023-06-26T04:07:05;19.60;99.90
11505;DHT22;5809;53.262;10.408;2023-06-26T04:14:27;19.60;99.90
11505;DHT22;5809;53.262;10.408;2023-06-26T04:21:50;19.70;99.90
11505;DHT22;5809;53.262;10.408;2023-06-26T04:29:12;19.80;99.90
11505;DHT22;5809;53.262;10.408;2023-06-26T04:31:40;19.80;99.90
11505;DHT22;5809;53.262;10.408;2023-06-26T04:41:32;20.10;99.90
11505;DHT22;5809;53.262;10.408;2023-06-26T04:46:26;20.20;99.90
11505;DHT22;5809;53.262;10.408;2023-06-26T04:48:54;20.30;99.90
11505;DHT22;5809;53.262;10.408;2023-06-26T04:56:19;20.50;99.90
11505;DHT22;5809;53.262;10.408;2023-06-26T05:01:13;20.70;99.90
11505;DHT22;5809;53.262;10.408;2023-06-26T05:03:41;20.90;99.90
11505;DHT22;5809;53.262;10.408;2023-06-26T05:15:57;21.80;99.90
11505;DHT22;5809;53.262;10.408;2023-06-26T05:18:24;22.00;99.90
11505;DHT22;5809;53.262;10.408;2023-06-26T05:20:51;22.10;99.90
11505;DHT22;5809;53.262;10.408;2023-06-26T05:25:48;22.40;99.90
11505;DHT22;5809;53.262;10.408;2023-06-26T05:33:11;22.70;99.90
11505;DHT22;5809;53.262;10.408;2023-06-26T05:40:35;23.10;99.90
11505;DHT22;5809;53.262;10.408;2023-06-26T05:45:29;23.60;99.90
11505;DHT22;5809;53.262;10.408;2023-06-26T05:47:56;23.80;99.90
11505;DHT22;5809;53.262;10.408;2023-06-26T05:50:24;24.00;99.90
11505;DHT22;5809;53.262;10.408;2023-06-26T05:55:19;24.00;99.90
11505;DHT22;5809;53.262;10.408;2023-06-26T05:57:48;24.10;99.90
11505;DHT22;5809;53.262;10.408;2023-06-26T06:00:16;23.90;99.90
11505;DHT22;5809;53.262;10.408;2023-06-26T06:05:10;24.20;99.90
11505;DHT22;5809;53.262;10.408;2023-06-26T06:12:32;24.40;99.90
11505;DHT22;5809;53.262;10.408;2023-06-26T06:15:00;24.40;99.90
11505;DHT22;5809;53.262;10.408;2023-06-26T06:17:27;24.50;99.90
11505;DHT22;5809;53.262;10.408;2023-06-26T06:24:50;25.20;99.90
11505;DHT22;5809;53.262;10.408;2023-06-26T06:27:17;25.20;99.90
11505;DHT22;5809;53.262;10.408;2023-06-26T06:29:43;25.10;99.90
11505;DHT22;5809;53.262;10.408;2023-06-26T06:39:33;25.70;99.90
11505;DHT22;5809;53.262;10.408;2023-06-26T06:44:27;26.00;99.90
11505;DHT22;5809;53.262;10.408;2023-06-26T06:46:55;26.10;99.90
11505;DHT22;5809;53.262;10.408;2023-06-26T06:51:52;26.10;99.90
11505;DHT22;5809;53.262;10.408;2023-06-26T07:04:07;25.80;99.90
11505;DHT22;5809;53.262;10.408;2023-06-26T07:06:36;26.10;99.90
11505;DHT22;5809;53.262;10.408;2023-06-26T07:09:02;26.20;99.90
11505;DHT22;5809;53.262;10.408;2023-06-26T07:13:58;26.00;99.90
11505;DHT22;5809;53.262;10.408;2023-06-26T07:18:52;26.80;99.90
11505;DHT22;5809;53.262;10.408;2023-06-26T07:21:20;27.10;99.90
11505;DHT22;5809;53.262;10.408;2023-06-26T07:23:49;27.50;99.90
11505;DHT22;5809;53.262;10.408;2023-06-26T07:28:42;27.70;99.90
11505;DHT22;5809;53.262;10.408;2023-06-26T07:33:36;28.30;99.90
11505;DHT22;5809;53.262;10.408;2023-06-26T07:36:03;28.00;99.90
11505;DHT22;5809;53.262;10.408;2023-06-26T07:40:59;28.00;1.00
11505;DHT22;5809;53.262;10.408;2023-06-26T07:45:53;28.80;99.90
11505;DHT22;5809;53.262;10.408;2023-06-26T07:48:20;29.30;99.90
11505;DHT22;5809;53.262;10.408;2023-06-26T07:50:47;29.30;99.90
11505;DHT22;5809;53.262;10.408;2023-06-26T07:53:14;29.40;99.90
11505;DHT22;5809;53.262;10.408;2023-06-26T08:27:43;30.00;99.90
11505;DHT22;5809;53.262;10.408;2023-06-26T08:30:11;29.80;99.90
11505;DHT22;5809;53.262;10.408;2023-06-26T08:32:40;30.00;99.90
11505;DHT22;5809;53.262;10.408;2023-06-26T08:35:07;30.60;99.90
11505;DHT22;5809;53.262;10.408;2023-06-26T08:40:03;30.50;99.90
11505;DHT22;5809;53.262;10.408;2023-06-26T08:47:25;32.00;99.90
11505;DHT22;5809;53.262;10.408;2023-06-26T08:50:03;31.60;99.90
11505;DHT22;5809;53.262;10.408;2023-06-26T08:52:36;31.50;99.90
11505;DHT22;5809;53.262;10.408;2023-06-26T08:55:08;31.60;99.90
11505;DHT22;5809;53.262;10.408;2023-06-26T08:57:35;30.80;99.90
11505;DHT22;5809;53.262;10.408;2023-06-26T09:00:04;30.00;99.90
11505;DHT22;5809;53.262;10.408;2023-06-26T09:02:31;30.10;99.90
11505;DHT22;5809;53.262;10.408;2023-06-26T09:07:27;30.80;99.90
11505;DHT22;5809;53.262;10.408;2023-06-26T09:12:21;31.50;99.90
11505;DHT22;5809;53.262;10.408;2023-06-26T09:17:15;32.50;99.90
11505;DHT22;5809;53.262;10.408;2023-06-26T09:19:45;32.20;99.90
11505;DHT22;5809;53.262;10.408;2023-06-26T09:22:13;31.90;99.90
11505;DHT22;5809;53.262;10.408;2023-06-26T09:29:35;31.40;99.90
11505;DHT22;5809;53.262;10.408;2023-06-26T09:32:02;31.80;99.90
11505;DHT22;5809;53.262;10.408;2023-06-26T09:34:32;32.30;99.90
11505;DHT22;5809;53.262;10.408;2023-06-26T09:39:30;32.20;99.90
11505;DHT22;5809;53.262;10.408;2023-06-26T09:49:19;32.40;99.90
11505;DHT22;5809;53.262;10.408;2023-06-26T09:51:46;32.70;99.90
11505;DHT22;5809;53.262;10.408;2023-06-26T09:54:16;32.60;99.90
11505;DHT22;5809;53.262;10.408;2023-06-26T09:56:44;32.30;99.90
11505;DHT22;5809;53.262;10.408;2023-06-26T09:59:11;32.10;99.90
11505;DHT22;5809;53.262;10.408;2023-06-26T10:01:41;32.10;99.90
11505;DHT22;5809;53.262;10.408;2023-06-26T10:04:07;32.50;99.90
11505;DHT22;5809;53.262;10.408;2023-06-26T10:06:36;32.60;99.90
11505;DHT22;5809;53.262;10.408;2023-06-26T10:09:04;31.90;99.90
11505;DHT22;5809;53.262;10.408;2023-06-26T10:11:36;31.20;99.90
11505;DHT22;5809;53.262;10.408;2023-06-26T10:14:07;30.70;99.90
11505;DHT22;5809;53.262;10.408;2023-06-26T10:16:37;30.90;99.90
11505;DHT22;5809;53.262;10.408;2023-06-26T10:19:08;30.60;99.90
11505;DHT22;5809;53.262;10.408;2023-06-26T10:21:35;30.20;1.00
11505;DHT22;5809;53.262;10.408;2023-06-26T10:24:05;29.50;99.90
11505;DHT22;5809;53.262;10.408;2023-06-26T10:26:35;29.10;1.00
11505;DHT22;5809;53.262;10.408;2023-06-26T10:29:06;29.10;99.90
11505;DHT22;5809;53.262;10.408;2023-06-26T10:31:34;29.10;99.90
11505;DHT22;5809;53.262;10.408;2023-06-26T10:34:02;29.60;99.90
11505;DHT22;5809;53.262;10.408;2023-06-26T10:36:31;29.20;99.90
11505;DHT22;5809;53.262;10.408;2023-06-26T10:39:02;29.20;99.90
11505;DHT22;5809;53.262;10.408;2023-06-26T10:41:36;28.50;99.90
11505;DHT22;5809;53.262;10.408;2023-06-26T10:44:09;27.10;99.90
11505;DHT22;5809;53.262;10.408;2023-06-26T10:46:49;26.40;99.90
11505;DHT22;5809;53.262;10.408;2023-06-26T10:49:18;25.10;99.90
11505;DHT22;5809;53.262;10.408;2023-06-26T10:51:48;24.00;99.90
11505;DHT22;5809;53.262;10.408;2023-06-26T10:54:16;22.20;99.90
11505;DHT22;5809;53.262;10.408;2023-06-26T10:56:45;21.40;99.90
11505;DHT22;5809;53.262;10.408;2023-06-26T10:59:18;20.80;99.90
11505;DHT22;5809;53.262;10.408;2023-06-26T11:01:46;20.10;99.90
11505;DHT22;5809;53.262;10.408;2023-06-26T11:04:36;19.70;99.90
11505;DHT22;5809;53.262;10.408;2023-06-26T11:07:15;19.40;99.90
11505;DHT22;5809;53.262;10.408;2023-06-26T11:09:57;19.20;99.90
11505;DHT22;5809;53.262;10.408;2023-06-26T11:12:38;19.10;99.90
11505;DHT22;5809;53.262;10.408;2023-06-26T11:15:09;19.20;99.90
11505;DHT22;5809;53.262;10.408;2023-06-26T11:17:37;19.10;99.90
11505;DHT22;5809;53.262;10.408;2023-06-26T11:20:05;19.10;99.90
11505;DHT22;5809;53.262;10.408;2023-06-26T11:22:35;19.10;99.90
11505;DHT22;5809;53.262;10.408;2023-06-26T11:25:03;19.00;99.90
11505;DHT22;5809;53.262;10.408;2023-06-26T11:27:31;19.20;99.90
11505;DHT22;5809;53.262;10.408;2023-06-26T11:29:58;19.20;99.90
11505;DHT22;5809;53.262;10.408;2023-06-26T11:32:27;19.20;99.90
11505;DHT22;5809;53.262;10.408;2023-06-26T11:34:54;19.30;99.90
11505;DHT22;5809;53.262;10.408;2023-06-26T11:37:21;19.60;99.90
11505;DHT22;5809;53.262;10.408;2023-06-26T11:39:49;20.60;99.90
11505;DHT22;5809;53.262;10.408;2023-06-26T11:42:16;21.40;99.90
11505;DHT22;5809;53.262;10.408;2023-06-26T11:44:43;21.50;99.90
11505;DHT22;5809;53.262;10.408;2023-06-26T11:47:14;21.60;99.90
11505;DHT22;5809;53.262;10.408;2023-06-26T11:49:47;21.30;99.90
11505;DHT22;5809;53.262;10.408;2023-06-26T11:52:15;21.20;99.90
11505;DHT22;5809;53.262;10.408;2023-06-26T11:54:43;21.20;99.90
11505;DHT22;5809;53.262;10.408;2023-06-26T11:57:14;21.30;99.90
11505;DHT22;5809;53.262;10.408;2023-06-26T11:59:41;21.30;99.90
11505;DHT22;5809;53.262;10.408;2023-06-26T12:02:09;21.40;99.90
11505;DHT22;5809;53.262;10.408;2023-06-26T12:04:38;21.40;99.90
11505;DHT22;5809;53.262;10.408;2023-06-26T12:07:09;21.30;99.90
11505;DHT22;5809;53.262;10.408;2023-06-26T12:09:41;21.30;99.90
11505;DHT22;5809;53.262;10.408;2023-06-26T12:12:10;21.70;99.90
11505;DHT22;5809;53.262;10.408;2023-06-26T12:14:37;22.00;99.90
11505;DHT22;5809;53.262;10.408;2023-06-26T12:17:08;22.70;99.90
11505;DHT22;5809;53.262;10.408;2023-06-26T12:19:37;23.00;99.90
11505;DHT22;5809;53.262;10.408;2023-06-26T12:22:08;23.30;99.90
11505;DHT22;5809;53.262;10.408;2023-06-26T12:24:36;23.30;99.90
11505;DHT22;5809;53.262;10.408;2023-06-26T12:27:08;23.60;99.90
11505;DHT22;5809;53.262;10.408;2023-06-26T12:29:36;24.10;99.90
11505;DHT22;5809;53.262;10.408;2023-06-26T12:32:03;25.30;99.90
11505;DHT22;5809;53.262;10.408;2023-06-26T12:34:32;25.30;99.90
11505;DHT22;5809;53.262;10.408;2023-06-26T12:37:01;27.40;99.90
11505;DHT22;5809;53.262;10.408;2023-06-26T12:39:30;27.40;99.90
11505;DHT22;5809;53.262;10.408;2023-06-26T12:42:14;28.00;99.90
11505;DHT22;5809;53.262;10.408;2023-06-26T12:44:41;27.80;99.90
11505;DHT22;5809;53.262;10.408;2023-06-26T12:47:07;28.10;99.90
11505;DHT22;5809;53.262;10.408;2023-06-26T12:49:36;28.00;99.90
11505;DHT22;5809;53.262;10.408;2023-06-26T12:52:05;28.50;99.90
11505;DHT22;5809;53.262;10.408;2023-06-26T12:54:33;28.40;99.90
11505;DHT22;5809;53.262;10.408;2023-06-26T12:57:00;27.40;99.90
11505;DHT22;5809;53.262;10.408;2023-06-26T12:59:29;27.70;99.90
11505;DHT22;5809;53.262;10.408;2023-06-26T13:01:56;28.50;99.90
11505;DHT22;5809;53.262;10.408;2023-06-26T13:04:23;30.10;99.90
11505;DHT22;5809;53.262;10.408;2023-06-26T13:06:50;30.50;99.90
11505;DHT22;5809;53.262;10.408;2023-06-26T13:09:17;31.00;99.90
11505;DHT22;5809;53.262;10.408;2023-06-26T13:11:46;30.70;99.90
11505;DHT22;5809;53.262;10.408;2023-06-26T13:14:13;30.30;99.90
11505;DHT22;5809;53.262;10.408;2023-06-26T13:16:40;29.90;99.90
11505;DHT22;5809;53.262;10.408;2023-06-26T13:19:07;28.90;99.90
11505;DHT22;5809;53.262;10.408;2023-06-26T13:21:34;29.50;99.90
11505;DHT22;5809;53.262;10.408;2023-06-26T13:24:01;29.10;99.90
11505;DHT22;5809;53.262;10.408;2023-06-26T13:26:29;28.60;99.90
11505;DHT22;5809;53.262;10.408;2023-06-26T13:28:58;29.10;99.90
11505;DHT22;5809;53.262;10.408;2023-06-26T13:31:25;29.70;99.90
11505;DHT22;5809;53.262;10.408;2023-06-26T13:33:52;30.00;99.90
11505;DHT22;5809;53.262;10.408;2023-06-26T13:36:19;30.20;99.90
11505;DHT22;5809;53.262;10.408;2023-06-26T13:38:46;30.20;99.90
11505;DHT22;5809;53.262;10.408;2023-06-26T13:41:15;30.00;99.90
11505;DHT22;5809;53.262;10.408;2023-06-26T13:43:45;30.10;99.90
11505;DHT22;5809;53.262;10.408;2023-06-26T13:46:13;30.30;99.90
11505;DHT22;5809;53.262;10.408;2023-06-26T13:48:40;30.10;99.90
11505;DHT22;5809;53.262;10.408;2023-06-26T13:51:06;30.20;99.90
11505;DHT22;5809;53.262;10.408;2023-06-26T13:53:33;30.10;99.90
11505;DHT22;5809;53.262;10.408;2023-06-26T13:56:00;29.80;99.90
11505;DHT22;5809;53.262;10.408;2023-06-26T13:58:27;29.50;99.90
11505;DHT22;5809;53.262;10.408;2023-06-26T14:00:55;29.10;99.90
11505;DHT22;5809;53.262;10.408;2023-06-26T14:03:23;29.00;99.90
11505;DHT22;5809;53.262;10.408;2023-06-26T14:05:50;28.60;99.90
11505;DHT22;5809;53.262;10.408;2023-06-26T14:08:17;28.00;99.90
11505;DHT22;5809;53.262;10.408;2023-06-26T14:10:44;27.30;99.90
11505;DHT22;5809;53.262;10.408;2023-06-26T14:13:11;27.00;99.90
11505;DHT22;5809;53.262;10.408;2023-06-26T14:15:41;26.40;99.90
11505;DHT22;5809;53.262;10.408;2023-06-26T14:18:08;26.20;99.90
11505;DHT22;5809;53.262;10.408;2023-06-26T14:20:36;25.80;99.90
11505;DHT22;5809;53.262;10.408;2023-06-26T14:23:03;26.20;99.90
11505;DHT22;5809;53.262;10.408;2023-06-26T14:25:30;26.00;99.90
11505;DHT22;5809;53.262;10.408;2023-06-26T14:27:58;26.10;99.90
11505;DHT22;5809;53.262;10.408;2023-06-26T14:30:25;25.60;99.90
11505;DHT22;5809;53.262;10.408;2023-06-26T14:32:52;25.40;99.90
11505;DHT22;5809;53.262;10.408;2023-06-26T14:35:19;25.80;99.90
11505;DHT22;5809;53.262;10.408;2023-06-26T14:37:48;26.50;99.90
11505;DHT22;5809;53.262;10.408;2023-06-26T14:40:15;26.80;99.90
11505;DHT22;5809;53.262;10.408;2023-06-26T14:42:41;27.00;99.90
11505;DHT22;5809;53.262;10.408;2023-06-26T14:45:11;27.00;99.90
11505;DHT22;5809;53.262;10.408;2023-06-26T14:47:38;27.00;99.90
11505;DHT22;5809;53.262;10.408;2023-06-26T14:50:05;27.10;99.90
11505;DHT22;5809;53.262;10.408;2023-06-26T14:52:33;26.50;99.90
11505;DHT22;5809;53.262;10.408;2023-06-26T14:55:01;22.10;99.90
11505;DHT22;5809;53.262;10.408;2023-06-26T14:57:28;26.20;99.90
11505;DHT22;5809;53.262;10.408;2023-06-26T14:59:55;26.20;99.90
11505;DHT22;5809;53.262;10.408;2023-06-26T15:02:22;26.10;99.90
11505;DHT22;5809;53.262;10.408;2023-06-26T15:04:49;26.20;99.90
11505;DHT22;5809;53.262;10.408;2023-06-26T15:07:16;25.60;99.90
11505;DHT22;5809;53.262;10.408;2023-06-26T15:09:43;25.20;99.90
11505;DHT22;5809;53.262;10.408;2023-06-26T15:12:11;25.00;99.90
11505;DHT22;5809;53.262;10.408;2023-06-26T15:14:38;24.80;99.90
11505;DHT22;5809;53.262;10.408;2023-06-26T15:17:05;24.60;99.90
11505;DHT22;5809;53.262;10.408;2023-06-26T15:19:33;27.70;99.90
11505;DHT22;5809;53.262;10.408;2023-06-26T15:22:00;24.50;99.90
11505;DHT22;5809;53.262;10.408;2023-06-26T15:24:27;24.90;99.90
11505;DHT22;5809;53.262;10.408;2023-06-26T15:26:54;25.00;99.90
11505;DHT22;5809;53.262;10.408;2023-06-26T15:29:22;25.00;99.90
11505;DHT22;5809;53.262;10.408;2023-06-26T15:31:50;25.10;99.90
11505;DHT22;5809;53.262;10.408;2023-06-26T15:34:17;25.10;99.90
11505;DHT22;5809;53.262;10.408;2023-06-26T15:36:43;24.80;99.90
11505;DHT22;5809;53.262;10.408;2023-06-26T15:39:10;24.50;99.90
11505;DHT22;5809;53.262;10.408;2023-06-26T15:41:37;24.30;99.90
11505;DHT22;5809;53.262;10.408;2023-06-26T15:44:04;24.30;99.90
11505;DHT22;5809;53.262;10.408;2023-06-26T15:46:33;24.00;99.90
11505;DHT22;5809;53.262;10.408;2023-06-26T16:01:16;23.20;99.90
11505;DHT22;5809;53.262;10.408;2023-06-26T16:03:44;23.20;99.90
11505;DHT22;5809;53.262;10.408;2023-06-26T16:08:38;23.20;99.90
11505;DHT22;5809;53.262;10.408;2023-06-26T16:11:06;23.30;99.90
11505;DHT22;5809;53.262;10.408;2023-06-26T16:16:00;23.50;99.90
11505;DHT22;5809;53.262;10.408;2023-06-26T16:25:50;22.90;99.90
11505;DHT22;5809;53.262;10.408;2023-06-26T16:28:17;22.70;99.90
11505;DHT22;5809;53.262;10.408;2023-06-26T16:40:35;22.30;99.90
11505;DHT22;5809;53.262;10.408;2023-06-26T16:45:29;22.00;99.90
11505;DHT22;5809;53.262;10.408;2023-06-26T16:50:23;22.00;99.90
11505;DHT22;5809;53.262;10.408;2023-06-26T16:52:50;22.10;99.90
11505;DHT22;5809;53.262;10.408;2023-06-26T16:57:45;21.90;99.90
11505;DHT22;5809;53.262;10.408;2023-06-26T17:02:40;21.70;99.90
11505;DHT22;5809;53.262;10.408;2023-06-26T17:19:56;21.40;99.90
11505;DHT22;5809;53.262;10.408;2023-06-26T17:22:22;21.30;99.90
11505;DHT22;5809;53.262;10.408;2023-06-26T17:24:49;21.30;99.90
11505;DHT22;5809;53.262;10.408;2023-06-26T17:27:16;21.30;99.90
11505;DHT22;5809;53.262;10.408;2023-06-26T17:32:14;21.30;99.90
11505;DHT22;5809;53.262;10.408;2023-06-26T17:37:08;21.30;99.90
11505;DHT22;5809;53.262;10.408;2023-06-26T17:42:03;21.10;99.90
11505;DHT22;5809;53.262;10.408;2023-06-26T17:49:25;20.90;99.90
11505;DHT22;5809;53.262;10.408;2023-06-26T17:51:52;21.00;99.90
11505;DHT22;5809;53.262;10.408;2023-06-26T17:54:19;21.00;99.90
11505;DHT22;5809;53.262;10.408;2023-06-26T17:59:13;20.90;99.90
11505;DHT22;5809;53.262;10.408;2023-06-26T18:13:59;20.60;99.90
11505;DHT22;5809;53.262;10.408;2023-06-26T18:16:26;20.60;99.90
11505;DHT22;5809;53.262;10.408;2023-06-26T18:38:36;20.30;99.90
11505;DHT22;5809;53.262;10.408;2023-06-26T18:43:30;20.30;99.90
11505;DHT22;5809;53.262;10.408;2023-06-26T18:58:14;20.00;99.90
11505;DHT22;5809;53.262;10.408;2023-06-26T19:00:41;20.00;99.90
11505;DHT22;5809;53.262;10.408;2023-06-26T19:08:03;19.70;99.90
11505;DHT22;5809;53.262;10.408;2023-06-26T19:22:47;19.40;99.90
11505;DHT22;5809;53.262;10.408;2023-06-26T19:27:43;19.30;99.90
11505;DHT22;5809;53.262;10.408;2023-06-26T19:30:13;19.20;99.90
11505;DHT22;5809;53.262;10.408;2023-06-26T19:37:35;18.90;99.90
11505;DHT22;5809;53.262;10.408;2023-06-26T19:40:02;18.80;99.90
11505;DHT22;5809;53.262;10.408;2023-06-26T19:52:26;18.70;99.90
11505;DHT22;5809;53.262;10.408;2023-06-26T20:07:10;18.30;99.90
11505;DHT22;5809;53.262;10.408;2023-06-26T20:24:23;17.80;99.90
11505;DHT22;5809;53.262;10.408;2023-06-26T20:26:50;17.70;99.90
11505;DHT22;5809;53.262;10.408;2023-06-26T20:29:17;17.70;99.90
11505;DHT22;5809;53.262;10.408;2023-06-26T20:31:43;17.60;99.90
11505;DHT22;5809;53.262;10.408;2023-06-26T20:36:37;17.50;99.90
11505;DHT22;5809;53.262;10.408;2023-06-26T20:41:33;17.40;99.90
11505;DHT22;5809;53.262;10.408;2023-06-26T20:46:28;17.20;99.90
11505;DHT22;5809;53.262;10.408;2023-06-26T20:53:52;17.10;99.90
11505;DHT22;5809;53.262;10.408;2023-06-26T21:01:16;16.90;99.90
11505;DHT22;5809;53.262;10.408;2023-06-26T21:06:10;16.80;99.90
11505;DHT22;5809;53.262;10.408;2023-06-26T21:08:36;16.70;99.90
11505;DHT22;5809;53.262;10.408;2023-06-26T21:13:32;16.70;99.90
11505;DHT22;5809;53.262;10.408;2023-06-26T21:15:58;16.70;99.90
11505;DHT22;5809;53.262;10.408;2023-06-26T21:25:46;16.50;99.90
11505;DHT22;5809;53.262;10.408;2023-06-26T21:33:09;16.40;99.90
11505;DHT22;5809;53.262;10.408;2023-06-26T21:35:36;16.40;99.90
11505;DHT22;5809;53.262;10.408;2023-06-26T21:38:02;16.30;99.90
11505;DHT22;5809;53.262;10.408;2023-06-26T21:40:29;16.30;99.90
11505;DHT22;5809;53.262;10.408;2023-06-26T21:50:19;16.00;99.90
11505;DHT22;5809;53.262;10.408;2023-06-26T21:52:45;16.00;99.90
11505;DHT22;5809;53.262;10.408;2023-06-26T21:57:39;15.90;99.90
11505;DHT22;5809;53.262;10.408;2023-06-26T22:00:07;15.90;99.90
11505;DHT22;5809;53.262;10.408;2023-06-26T22:02:38;15.80;99.90
11505;DHT22;5809;53.262;10.408;2023-06-26T22:05:07;15.80;99.90
11505;DHT22;5809;53.262;10.408;2023-06-26T22:07:35;15.80;99.90
11505;DHT22;5809;53.262;10.408;2023-06-26T22:10:02;16.60;99.90
11505;DHT22;5809;53.262;10.408;2023-06-26T22:12:30;15.60;99.90
11505;DHT22;5809;53.262;10.408;2023-06-26T22:14:57;16.10;99.90
11505;DHT22;5809;53.262;10.408;2023-06-26T22:17:23;15.60;99.90
11505;DHT22;5809;53.262;10.408;2023-06-26T22:19:50;15.50;99.90
11505;DHT22;5809;53.262;10.408;2023-06-26T22:22:18;18.20;99.90
11505;DHT22;5809;53.262;10.408;2023-06-26T22:27:12;15.50;99.90